Time;durP1;ratioP1;P1;durP2;ratioP2;P2;SDS_P1;SDS_P2;PMS_P1;PMS_P2;Temp;Humidity;BMP_temperature;BMP_pressure;BME280_temperature;BME280_humidity;BME280_pressure;Samples;Min_cycle;Max_cycle;Signal;HPM_P1;HPM_P2
2022/08/22 00:01:18;;;;;;;0.60;0.30;;;19.20;67.70;;;;;;6247959;22;20474;-73
2022/08/22 00:04:05;;;;;;;1.48;0.55;;;19.20;67.80;;;;;;6274820;22;20023;-73
2022/08/22 00:06:53;;;;;;;1.02;0.40;;;19.10;67.80;;;;;;6247501;22;20443;-73
2022/08/22 00:09:31;;;;;;;0.82;0.30;;;19.10;67.80;;;;;;6271872;22;20447;-73
2022/08/22 00:12:30;;;;;;;0.63;0.32;;;19.10;67.80;;;;;;6248954;22;20311;-73
2022/08/22 00:15:08;;;;;;;0.47;0.40;;;19.20;67.90;;;;;;6274346;22;20301;-73
2022/08/22 00:17:46;;;;;;;1.00;0.47;;;19.10;67.90;;;;;;6275074;22;20023;-73
2022/08/22 00:20:30;;;;;;;0.30;0.30;;;19.10;68.00;;;;;;6275030;22;20471;-73
2022/08/22 00:23:08;;;;;;;0.52;0.38;;;19.20;68.10;;;;;;6274409;22;20482;-73
2022/08/22 00:25:57;;;;;;;1.20;0.43;;;19.10;68.10;;;;;;6274659;22;20010;-73
2022/08/22 00:28:32;;;;;;;0.52;0.22;;;19.10;68.30;;;;;;6274662;22;20007;-73
2022/08/22 00:31:17;;;;;;;0.50;0.40;;;19.10;68.30;;;;;;6247323;22;20428;-73
2022/08/22 00:33:51;;;;;;;0.43;0.35;;;19.10;68.40;;;;;;6247092;22;20004;-73
2022/08/22 00:36:43;;;;;;;1.17;0.40;;;19.10;68.50;;;;;;6274192;22;20377;-73
2022/08/22 00:39:15;;;;;;;0.60;0.40;;;19.10;68.50;;;;;;6251867;22;20103;-73
2022/08/22 00:42:14;;;;;;;0.30;0.30;;;19.10;68.60;;;;;;6274249;22;20000;-73
2022/08/22 00:45:11;;;;;;;0.32;0.32;;;19.10;68.70;;;;;;6274410;22;20000;-73
2022/08/22 00:48:10;;;;;;;0.20;0.20;;;19.00;68.70;;;;;;6247269;22;20085;-73
2022/08/22 00:51:04;;;;;;;0.25;0.25;;;19.00;68.80;;;;;;6272023;22;20026;-73
2022/08/22 00:53:53;;;;;;;0.30;0.30;;;19.00;68.80;;;;;;6277851;22;20004;-73
2022/08/22 00:56:40;;;;;;;0.38;0.38;;;19.00;68.90;;;;;;6277895;22;20008;-73
2022/08/22 00:59:42;;;;;;;0.45;0.38;;;19.00;69.00;;;;;;6277013;22;20004;-73
2022/08/22 01:02:32;;;;;;;0.35;0.35;;;18.90;69.10;;;;;;6274735;22;20306;-73
2022/08/22 01:05:21;;;;;;;0.43;0.40;;;19.00;69.10;;;;;;6254355;22;20007;-73
2022/08/22 01:08:21;;;;;;;0.77;0.30;;;19.00;69.10;;;;;;6277716;22;19996;-73
2022/08/22 01:11:04;;;;;;;0.47;0.30;;;18.90;69.20;;;;;;6277484;22;20000;-73
2022/08/22 01:13:53;;;;;;;0.50;0.40;;;19.00;69.30;;;;;;6277384;22;20007;-73
2022/08/22 01:16:48;;;;;;;0.47;0.40;;;19.00;69.40;;;;;;6277363;22;20083;-73
2022/08/22 01:19:43;;;;;;;0.30;0.30;;;18.90;69.40;;;;;;6277133;22;20027;-73
2022/08/22 01:22:34;;;;;;;0.52;0.40;;;18.90;69.40;;;;;;6250136;22;20057;-73
2022/08/22 01:25:34;;;;;;;0.65;0.40;;;18.90;69.50;;;;;;6277927;22;20132;-73
2022/08/22 01:28:25;;;;;;;1.00;0.40;;;18.90;69.50;;;;;;6274198;22;20131;-73
2022/08/22 01:31:25;;;;;;;0.45;0.45;;;18.90;69.60;;;;;;6247647;22;20012;-73
2022/08/22 01:34:24;;;;;;;0.20;0.20;;;18.90;69.70;;;;;;6277306;22;20383;-73
2022/08/22 01:37:14;;;;;;;0.30;0.30;;;18.90;69.70;;;;;;6277126;22;20447;-73
2022/08/22 01:40:05;;;;;;;0.45;0.45;;;18.90;69.80;;;;;;6277208;22;20443;-73
2022/08/22 01:42:59;;;;;;;0.83;0.40;;;18.80;69.80;;;;;;6277213;22;20030;-73
2022/08/22 01:45:49;;;;;;;0.40;0.40;;;18.80;70.40;;;;;;6249924;22;20008;-73
2022/08/22 01:48:23;;;;;;;0.50;0.45;;;18.80;69.90;;;;;;6274791;22;20004;-73
2022/08/22 01:50:55;;;;;;;0.52;0.30;;;18.90;69.90;;;;;;6277316;22;20007;-73
2022/08/22 01:53:39;;;;;;;0.38;0.30;;;18.80;69.90;;;;;;6277441;22;20007;-73
2022/08/22 01:56:11;;;;;;;0.30;0.30;;;18.80;70.00;;;;;;6277713;22;20367;-73
2022/08/22 01:58:52;;;;;;;0.45;0.40;;;18.80;70.00;;;;;;6277767;22;20404;-73
2022/08/22 02:01:51;;;;;;;1.02;0.50;;;18.80;70.20;;;;;;6250189;22;20011;-74
2022/08/22 02:04:51;;;;;;;0.50;0.50;;;18.80;70.20;;;;;;6229390;22;20008;-73
2022/08/22 02:07:24;;;;;;;0.30;0.30;;;18.80;70.30;;;;;;6275885;22;20408;-73
2022/08/22 02:10:07;;;;;;;0.40;0.30;;;18.80;70.30;;;;;;6248157;22;20000;-73
2022/08/22 02:12:46;;;;;;;0.57;0.30;;;18.80;70.30;;;;;;6275626;22;20011;-73
2022/08/22 02:15:42;;;;;;;0.40;0.40;;;18.70;70.30;;;;;;6275670;22;20063;-73
2022/08/22 02:18:16;;;;;;;1.90;0.57;;;18.70;70.40;;;;;;6274910;22;20007;-73
2022/08/22 02:21:02;;;;;;;0.45;0.40;;;18.80;70.60;;;;;;6275018;22;20431;-73
2022/08/22 02:23:47;;;;;;;0.45;0.40;;;18.80;70.60;;;;;;6275066;22;20365;-73
2022/08/22 02:26:19;;;;;;;0.30;0.30;;;18.70;70.60;;;;;;6247965;22;20087;-74
2022/08/22 02:29:03;;;;;;;0.30;0.30;;;18.80;70.70;;;;;;6275528;22;20058;-72
2022/08/22 02:32:00;;;;;;;0.52;0.32;;;18.70;70.70;;;;;;6275929;22;20003;-73
2022/08/22 02:34:38;;;;;;;0.52;0.38;;;18.70;70.80;;;;;;6275588;22;19999;-73
2022/08/22 02:37:13;;;;;;;1.05;0.30;;;18.70;70.80;;;;;;6248442;22;20007;-72
2022/08/22 02:39:50;;;;;;;0.30;0.30;;;18.80;70.90;;;;;;6275259;22;20057;-73
2022/08/22 02:42:39;;;;;;;0.43;0.40;;;18.70;70.90;;;;;;6223726;22;20010;-73
2022/08/22 02:45:23;;;;;;;0.47;0.40;;;18.70;70.90;;;;;;6275168;22;20054;-73
2022/08/22 02:48:02;;;;;;;0.45;0.43;;;18.70;71.00;;;;;;6275583;22;19996;-73
2022/08/22 02:50:45;;;;;;;0.55;0.40;;;18.60;71.00;;;;;;6274968;22;20000;-73
2022/08/22 02:53:19;;;;;;;0.30;0.30;;;18.70;71.20;;;;;;6244719;22;20324;-73
2022/08/22 02:56:02;;;;;;;0.40;0.30;;;18.60;71.10;;;;;;6248521;22;20039;-73
2022/08/22 02:58:49;;;;;;;0.40;0.40;;;18.70;71.70;;;;;;6249831;22;20419;-73
2022/08/22 03:01:32;;;;;;;1.00;0.50;;;18.70;71.30;;;;;;6274794;22;20008;-73
2022/08/22 03:04:21;;;;;;;0.52;0.40;;;18.60;71.20;;;;;;6274913;22;19999;-73
2022/08/22 03:07:22;;;;;;;0.50;0.40;;;18.60;71.30;;;;;;6275078;22;20379;-73
2022/08/22 03:10:10;;;;;;;0.88;0.40;;;18.60;71.30;;;;;;6226717;22;20015;-73
2022/08/22 03:13:04;;;;;;;0.28;0.28;;;18.60;71.30;;;;;;6249683;22;20004;-74
2022/08/22 03:15:44;;;;;;;0.32;0.30;;;18.60;71.40;;;;;;6252468;22;20004;-73
2022/08/22 03:18:25;;;;;;;0.40;0.30;;;18.60;71.50;;;;;;6275513;22;19999;-73
2022/08/22 03:21:09;;;;;;;0.98;0.40;;;18.60;71.60;;;;;;6275295;22;20023;-73
2022/08/22 03:23:43;;;;;;;0.35;0.35;;;18.60;71.60;;;;;;6274866;22;20324;-73
2022/08/22 03:26:32;;;;;;;0.35;0.30;;;18.60;71.70;;;;;;6275073;22;20015;-73
2022/08/22 03:29:08;;;;;;;0.52;0.40;;;18.50;71.70;;;;;;6274552;22;20004;-73
2022/08/22 03:31:35;;;;;;;0.60;0.30;;;18.50;71.80;;;;;;6274571;22;20006;-73
2022/08/22 03:34:18;;;;;;;0.90;0.40;;;18.50;71.80;;;;;;6274585;22;20501;-73
2022/08/22 03:37:07;;;;;;;0.35;0.35;;;18.50;71.90;;;;;;6274661;22;20091;-73
2022/08/22 03:39:54;;;;;;;0.45;0.45;;;18.50;71.90;;;;;;6271817;22;20004;-73
2022/08/22 03:42:49;;;;;;;1.17;0.60;;;18.50;72.00;;;;;;6274912;22;20002;-73
2022/08/22 03:45:47;;;;;;;0.40;0.40;;;18.50;72.10;;;;;;6274877;22;19996;-73
2022/08/22 03:48:43;;;;;;;0.40;0.40;;;18.50;72.10;;;;;;6227078;22;20079;-73
2022/08/22 03:51:27;;;;;;;0.85;0.40;;;18.50;72.20;;;;;;6252100;22;20003;-73
2022/08/22 03:54:13;;;;;;;0.30;0.22;;;18.50;72.20;;;;;;6274956;22;20003;-73
2022/08/22 03:57:15;;;;;;;0.50;0.50;;;18.50;72.20;;;;;;6274495;22;20313;-73
2022/08/22 04:00:11;;;;;;;0.80;0.50;;;18.50;72.30;;;;;;6255856;22;20090;-73
2022/08/22 04:03:04;;;;;;;1.25;0.40;;;18.50;72.40;;;;;;6275418;22;20034;-73
2022/08/22 04:06:01;;;;;;;0.38;0.38;;;18.30;72.30;;;;;;6246570;22;20008;-73
2022/08/22 04:08:54;;;;;;;0.28;0.28;;;18.40;72.40;;;;;;6275348;22;20008;-73
2022/08/22 04:11:45;;;;;;;0.30;0.30;;;18.40;72.50;;;;;;6247932;22;20374;-73
2022/08/22 04:14:21;;;;;;;;;;;18.40;72.50;;;;;;6275977;22;20000;-73
2022/08/22 04:17:26;;;;;;;0.30;0.30;;;18.40;72.40;;;;;;6274688;22;19915;-73
2022/08/22 04:20:12;;;;;;;0.20;0.20;;;18.40;72.50;;;;;;6256783;22;19999;-73
2022/08/22 04:23:17;;;;;;;0.22;0.22;;;18.40;72.50;;;;;;6275667;22;20062;-73
2022/08/22 04:25:52;;;;;;;0.73;0.40;;;18.40;72.60;;;;;;6226257;22;20328;-73
2022/08/22 04:28:35;;;;;;;0.73;0.40;;;18.40;72.60;;;;;;6275495;22;20011;-73
2022/08/22 04:31:10;;;;;;;0.40;0.40;;;18.40;72.60;;;;;;6247250;22;20336;-73
2022/08/22 04:33:58;;;;;;;0.30;0.30;;;18.40;72.70;;;;;;6273462;22;20034;-73
2022/08/22 04:36:36;;;;;;;0.50;0.32;;;18.40;72.70;;;;;;6274950;22;20427;-73
2022/08/22 04:39:27;;;;;;;0.20;0.20;;;18.40;72.70;;;;;;6271572;22;20031;-73
2022/08/22 04:42:08;;;;;;;;;;;18.40;72.80;;;;;;6275111;22;20030;-73
2022/08/22 04:44:44;;;;;;;0.65;0.30;;;18.30;72.60;;;;;;6274580;22;19978;-73
2022/08/22 04:47:30;;;;;;;0.45;0.30;;;18.40;72.70;;;;;;6275360;22;20011;-73
2022/08/22 04:50:07;;;;;;;0.52;0.35;;;18.40;72.80;;;;;;6272148;22;20078;-73
2022/08/22 04:53:08;;;;;;;0.40;0.40;;;18.40;72.80;;;;;;6274844;22;20004;-73
2022/08/22 04:56:09;;;;;;;0.30;0.30;;;18.40;72.90;;;;;;6274335;22;20008;-73
2022/08/22 04:58:57;;;;;;;0.40;0.40;;;18.40;72.90;;;;;;6255619;22;20010;-73
2022/08/22 05:01:35;;;;;;;0.70;0.50;;;18.40;72.90;;;;;;6274828;22;19999;-73
2022/08/22 05:04:07;;;;;;;0.45;0.30;;;18.50;73.00;;;;;;6247174;22;20000;-73
2022/08/22 05:06:38;;;;;;;0.65;0.45;;;18.40;73.00;;;;;;6221077;22;20487;-73
2022/08/22 05:09:11;;;;;;;0.40;0.40;;;18.40;73.10;;;;;;6274338;22;20026;-73
2022/08/22 05:11:40;;;;;;;0.30;0.30;;;18.40;73.20;;;;;;6275339;22;20012;-73
2022/08/22 05:14:17;;;;;;;0.88;0.40;;;18.40;73.20;;;;;;6274233;22;20035;-73
2022/08/22 05:16:48;;;;;;;0.30;0.30;;;18.40;73.20;;;;;;6247274;22;20019;-73
2022/08/22 05:19:21;;;;;;;1.38;0.47;;;18.30;73.20;;;;;;6247122;22;20008;-73
2022/08/22 05:21:49;;;;;;;0.50;0.50;;;18.40;73.20;;;;;;6274598;22;20023;-73
2022/08/22 05:24:36;;;;;;;1.38;0.45;;;18.40;73.30;;;;;;6274645;22;20059;-73
2022/08/22 05:27:10;;;;;;;1.23;0.60;;;18.40;73.30;;;;;;6274154;22;20053;-73
2022/08/22 05:29:41;;;;;;;0.65;0.40;;;18.40;73.30;;;;;;6274388;22;20007;-73
2022/08/22 05:32:11;;;;;;;;;;;18.40;73.30;;;;;;6274716;22;20075;-73
2022/08/22 05:34:41;;;;;;;0.30;0.30;;;18.40;73.20;;;;;;6274194;22;19978;-73
2022/08/22 05:37:13;;;;;;;0.52;0.40;;;18.30;73.20;;;;;;6245808;22;20011;-73
2022/08/22 05:39:45;;;;;;;0.40;0.40;;;18.50;73.20;;;;;;6275403;22;20000;-73
2022/08/22 05:42:21;;;;;;;0.30;0.30;;;18.40;73.20;;;;;;6247812;22;19999;-73
2022/08/22 05:44:47;;;;;;;1.42;0.55;;;18.50;73.90;;;;;;6275707;22;19999;-73
2022/08/22 05:47:32;;;;;;;0.50;0.45;;;18.50;73.20;;;;;;6275772;22;19999;-73
2022/08/22 05:50:03;;;;;;;0.63;0.50;;;18.50;73.20;;;;;;6275365;22;19999;-73
2022/08/22 05:52:35;;;;;;;;;;;18.50;73.20;;;;;;6276223;22;20483;-73
2022/08/22 05:55:41;;;;;;;0.52;0.35;;;18.50;73.10;;;;;;6275296;22;19907;-73
2022/08/22 05:58:43;;;;;;;0.30;0.30;;;18.50;73.10;;;;;;6276067;22;20079;-73
2022/08/22 06:01:34;;;;;;;0.43;0.40;;;18.60;73.10;;;;;;6275535;22;20000;-73
2022/08/22 06:04:07;;;;;;;0.47;0.47;;;18.60;73.00;;;;;;6275853;22;20007;-73
2022/08/22 06:06:53;;;;;;;0.30;0.30;;;18.70;73.10;;;;;;6272354;22;20019;-73
2022/08/22 06:09:31;;;;;;;0.52;0.52;;;18.60;72.90;;;;;;6275124;22;20005;-73
2022/08/22 06:12:04;;;;;;;0.82;0.60;;;18.60;72.90;;;;;;6275357;22;20015;-73
2022/08/22 06:14:40;;;;;;;0.57;0.40;;;18.70;73.60;;;;;;6248655;22;20004;-73
2022/08/22 06:17:20;;;;;;;0.40;0.40;;;18.70;72.90;;;;;;6275360;22;20008;-73
2022/08/22 06:19:48;;;;;;;0.43;0.43;;;18.80;72.90;;;;;;6275847;22;20004;-73
2022/08/22 06:22:20;;;;;;;1.10;0.50;;;18.80;72.80;;;;;;6246565;22;20057;-73
2022/08/22 06:24:48;;;;;;;0.60;0.60;;;18.80;72.70;;;;;;6248551;22;20006;-73
2022/08/22 06:27:19;;;;;;;0.40;0.40;;;18.90;72.70;;;;;;6275216;22;20018;-73
2022/08/22 06:29:48;;;;;;;;;;;19.00;72.60;;;;;;6248431;22;20006;-73
2022/08/22 06:32:26;;;;;;;0.43;0.43;;;19.00;72.50;;;;;;6275186;22;19974;-73
2022/08/22 06:34:55;;;;;;;0.80;0.52;;;19.10;72.40;;;;;;6275269;22;20000;-73
2022/08/22 06:37:32;;;;;;;0.40;0.40;;;19.20;72.90;;;;;;6275568;22;20003;-73
2022/08/22 06:40:01;;;;;;;0.60;0.40;;;19.10;72.10;;;;;;6275295;22;20027;-73
2022/08/22 06:42:31;;;;;;;0.93;0.47;;;19.30;72.20;;;;;;6248607;22;20028;-73
2022/08/22 06:45:05;;;;;;;1.02;0.60;;;19.20;72.20;;;;;;6276009;22;20000;-73
2022/08/22 06:47:44;;;;;;;2.47;0.55;;;19.30;72.10;;;;;;6270725;22;20102;-73
2022/08/22 06:50:18;;;;;;;0.40;0.40;;;19.30;72.80;;;;;;6275082;22;20051;-73
2022/08/22 06:53:04;;;;;;;1.38;0.50;;;19.40;72.20;;;;;;6249004;22;20000;-73
2022/08/22 06:55:30;;;;;;;0.50;0.50;;;19.40;72.20;;;;;;6275607;22;20000;-73
2022/08/22 06:58:02;;;;;;;0.43;0.35;;;19.50;72.20;;;;;;6275245;22;20007;-73
2022/08/22 07:00:32;;;;;;;1.42;0.60;;;19.40;72.10;;;;;;6275647;22;20000;-73
2022/08/22 07:03:20;;;;;;;1.45;0.75;;;19.50;72.00;;;;;;6248173;22;20034;-73
2022/08/22 07:05:46;;;;;;;0.65;0.60;;;19.50;72.00;;;;;;6274944;22;20006;-73
2022/08/22 07:08:18;;;;;;;0.75;0.50;;;19.60;72.00;;;;;;6248149;22;20004;-73
2022/08/22 07:10:56;;;;;;;0.95;0.60;;;19.60;71.90;;;;;;6247962;22;20009;-73
2022/08/22 07:13:25;;;;;;;1.10;0.50;;;19.70;71.80;;;;;;6275806;22;20008;-73
2022/08/22 07:15:56;;;;;;;0.50;0.50;;;19.70;71.70;;;;;;6275813;22;20459;-73
2022/08/22 07:18:26;;;;;;;0.65;0.50;;;19.80;71.60;;;;;;6275048;22;20440;-73
2022/08/22 07:20:55;;;;;;;0.93;0.70;;;19.90;71.50;;;;;;6275264;22;20000;-73
2022/08/22 07:23:44;;;;;;;0.60;0.60;;;20.00;71.50;;;;;;6275621;22;19996;-73
2022/08/22 07:26:35;;;;;;;0.75;0.57;;;20.00;71.40;;;;;;6247978;22;20091;-73
2022/08/22 07:29:05;;;;;;;;;;;20.00;71.30;;;;;;6227383;22;20035;-73
2022/08/22 07:31:47;;;;;;;0.30;0.30;;;20.10;71.20;;;;;;6275276;22;19973;-73
2022/08/22 07:34:41;;;;;;;1.10;0.50;;;20.20;71.00;;;;;;6275380;22;19999;-73
2022/08/22 07:37:24;;;;;;;1.08;0.40;;;20.30;71.00;;;;;;6247975;22;20317;-73
2022/08/22 07:39:58;;;;;;;0.70;0.50;;;20.30;71.00;;;;;;6275113;22;20007;-73
2022/08/22 07:42:38;;;;;;;0.40;0.40;;;20.30;70.90;;;;;;6222300;22;20336;-74
2022/08/22 07:45:19;;;;;;;0.70;0.60;;;20.30;71.00;;;;;;6248215;22;20390;-74
2022/08/22 07:48:14;;;;;;;1.00;0.40;;;20.50;71.10;;;;;;6275048;22;20098;-73
2022/08/22 07:50:52;;;;;;;0.50;0.50;;;20.50;71.00;;;;;;6275048;22;20007;-72
2022/08/22 07:53:38;;;;;;;0.43;0.40;;;20.50;70.80;;;;;;6275280;22;20010;-73
2022/08/22 07:56:09;;;;;;;0.70;0.50;;;20.60;70.80;;;;;;6275776;22;20004;-73
2022/08/22 07:58:38;;;;;;;0.47;0.47;;;20.70;70.70;;;;;;6275387;22;20065;-74
2022/08/22 08:01:08;;;;;;;0.40;0.40;;;20.80;70.40;;;;;;6274718;22;20068;-73
2022/08/22 08:03:35;;;;;;;0.60;0.40;;;20.80;70.30;;;;;;6249124;22;20442;-72
2022/08/22 08:06:01;;;;;;;1.02;0.60;;;20.80;70.30;;;;;;6274947;22;20070;-72
2022/08/22 08:08:43;;;;;;;1.67;0.60;;;20.90;70.30;;;;;;6274979;22;20000;-73
2022/08/22 08:11:13;;;;;;;0.43;0.43;;;20.90;70.20;;;;;;6273101;22;20012;-73
2022/08/22 08:13:43;;;;;;;0.70;0.47;;;21.00;70.20;;;;;;6275281;22;20011;-73
2022/08/22 08:16:18;;;;;;;1.00;0.50;;;21.10;70.00;;;;;;6249204;22;20045;-73
2022/08/22 08:18:48;;;;;;;0.40;0.40;;;21.20;69.90;;;;;;6275083;22;20522;-73
2022/08/22 08:21:38;;;;;;;0.57;0.50;;;21.50;69.60;;;;;;6274884;22;19999;-73
2022/08/22 08:24:07;;;;;;;0.75;0.68;;;21.60;69.20;;;;;;6247170;22;20047;-73
2022/08/22 08:28:32;;;;;;;0.57;0.47;;;21.80;68.90;;;;;;6274889;22;20014;-73
2022/08/22 08:29:26;;;;;;;1.17;0.50;;;21.90;68.80;;;;;;6274230;22;20458;-73
2022/08/22 08:31:53;;;;;;;0.60;0.47;;;22.00;68.70;;;;;;6274938;22;20008;-74
2022/08/22 08:34:23;;;;;;;0.40;0.40;;;22.20;68.40;;;;;;6275051;22;20480;-73
2022/08/22 08:36:58;;;;;;;1.40;0.63;;;22.40;68.10;;;;;;6274882;22;20091;-73
2022/08/22 08:39:42;;;;;;;0.75;0.45;;;22.50;67.80;;;;;;6274909;22;20436;-73
2022/08/22 08:42:28;;;;;;;0.50;0.50;;;22.50;67.70;;;;;;6274432;22;20062;-74
2022/08/22 08:45:17;;;;;;;0.80;0.60;;;22.50;68.00;;;;;;6274746;22;20416;-73
2022/08/22 08:48:18;;;;;;;0.68;0.50;;;22.50;68.20;;;;;;6275176;22;20590;-74
2022/08/22 08:51:01;;;;;;;0.40;0.40;;;22.40;68.30;;;;;;6255691;22;20004;-73
2022/08/22 08:53:49;;;;;;;1.65;0.60;;;22.50;68.30;;;;;;6247820;22;20049;-73
2022/08/22 08:56:31;;;;;;;1.92;0.52;;;22.50;68.40;;;;;;6272044;22;20007;-74
2022/08/22 08:59:29;;;;;;;0.68;0.60;;;22.60;68.30;;;;;;6274334;22;20053;-74
2022/08/22 09:02:29;;;;;;;1.85;0.50;;;22.60;68.30;;;;;;6274610;22;20000;-74
2022/08/22 09:05:29;;;;;;;0.47;0.47;;;22.70;68.50;;;;;;6274311;22;20022;-74
2022/08/22 09:08:23;;;;;;;0.40;0.40;;;22.70;68.50;;;;;;6251749;22;20007;-73
2022/08/22 09:11:24;;;;;;;0.50;0.50;;;22.90;68.40;;;;;;6273535;22;19999;-74
2022/08/22 09:14:18;;;;;;;0.50;0.50;;;23.20;67.70;;;;;;6256676;22;20078;-73
2022/08/22 09:17:19;;;;;;;0.70;0.70;;;23.50;67.30;;;;;;6253049;22;20015;-74
2022/08/22 09:20:10;;;;;;;0.80;0.77;;;23.50;67.20;;;;;;6257035;22;20000;-73
2022/08/22 09:23:11;;;;;;;1.00;0.80;;;23.60;66.90;;;;;;6275687;22;20003;-73
2022/08/22 09:25:47;;;;;;;0.50;0.50;;;23.80;66.70;;;;;;6227593;22;20432;-73
2022/08/22 09:28:37;;;;;;;0.90;0.60;;;23.90;66.60;;;;;;6275309;22;20083;-74
2022/08/22 09:31:27;;;;;;;0.50;0.50;;;24.00;66.30;;;;;;6275671;22;20011;-73
2022/08/22 09:34:09;;;;;;;1.20;0.60;;;24.00;66.20;;;;;;6253915;22;20015;-74
2022/08/22 09:37:11;;;;;;;0.57;0.50;;;24.10;66.20;;;;;;6251025;22;20019;-73
2022/08/22 09:40:14;;;;;;;0.40;0.40;;;24.00;66.30;;;;;;6275381;22;20000;-73
2022/08/22 09:43:12;;;;;;;0.70;0.60;;;24.00;66.50;;;;;;6275406;22;20080;-73
2022/08/22 09:46:07;;;;;;;0.52;0.52;;;24.00;66.40;;;;;;6276006;22;20003;-73
2022/08/22 09:48:53;;;;;;;1.00;0.55;;;24.00;66.50;;;;;;6275400;22;20008;-73
2022/08/22 09:51:40;;;;;;;0.40;0.40;;;23.90;66.50;;;;;;6275663;22;20032;-74
2022/08/22 09:54:28;;;;;;;0.52;0.52;;;24.00;66.40;;;;;;6276083;22;20007;-74
2022/08/22 09:57:08;;;;;;;0.82;0.60;;;24.10;66.40;;;;;;6275650;22;20034;-73
2022/08/22 09:59:41;;;;;;;;;;;24.10;66.20;;;;;;6276962;22;20065;-73
2022/08/22 10:02:44;;;;;;;0.30;0.30;;;24.30;66.20;;;;;;6275378;22;19899;-74
2022/08/22 10:05:23;;;;;;;1.00;0.57;;;24.30;66.00;;;;;;6253023;22;20031;-73
2022/08/22 10:08:17;;;;;;;0.57;0.40;;;24.40;65.80;;;;;;6276277;22;20057;-73
2022/08/22 10:10:59;;;;;;;1.05;0.57;;;24.40;65.70;;;;;;6275721;22;20019;-73
2022/08/22 10:13:43;;;;;;;0.47;0.40;;;24.30;65.60;;;;;;6275552;22;20066;-73
2022/08/22 10:16:45;;;;;;;0.93;0.50;;;24.40;65.80;;;;;;6275424;22;20013;-74
2022/08/22 10:19:24;;;;;;;2.13;0.65;;;24.40;65.60;;;;;;6252727;22;20003;-73
2022/08/22 10:22:20;;;;;;;0.87;0.63;;;24.50;65.50;;;;;;6275409;22;20371;-73
2022/08/22 10:25:25;;;;;;;1.52;0.60;;;24.50;65.10;;;;;;6255527;22;20466;-73
2022/08/22 10:28:15;;;;;;;1.25;0.45;;;24.60;64.90;;;;;;6257232;22;19999;-73
2022/08/22 10:31:16;;;;;;;1.63;0.70;;;24.70;64.60;;;;;;6275386;22;19996;-74
2022/08/22 10:34:03;;;;;;;1.52;0.70;;;24.80;64.30;;;;;;6253384;22;20000;-73
2022/08/22 10:36:44;;;;;;;0.40;0.40;;;25.00;64.10;;;;;;6275016;22;20047;-73
2022/08/22 10:39:17;;;;;;;0.95;0.63;;;25.10;63.70;;;;;;6275172;22;20018;-73
2022/08/22 10:42:15;;;;;;;0.40;0.40;;;25.10;63.30;;;;;;6275159;22;20004;-73
2022/08/22 10:44:58;;;;;;;0.65;0.50;;;25.10;63.20;;;;;;6229754;22;20038;-73
2022/08/22 10:47:36;;;;;;;0.60;0.60;;;25.10;63.10;;;;;;6248998;22;20035;-73
2022/08/22 10:50:14;;;;;;;0.40;0.40;;;25.10;63.10;;;;;;6275292;22;20000;-73
2022/08/22 10:55:46;;;;;;;1.17;0.50;;;25.00;62.70;;;;;;6275119;22;20019;-74
2022/08/22 10:58:18;;;;;;;0.43;0.40;;;25.00;62.90;;;;;;6275072;22;20436;-73
2022/08/22 11:00:57;;;;;;;0.40;0.40;;;25.00;62.80;;;;;;6275119;22;20003;-74
2022/08/22 11:03:47;;;;;;;0.88;0.60;;;25.00;62.70;;;;;;6247868;22;20083;-74
2022/08/22 11:06:29;;;;;;;0.40;0.40;;;25.10;62.50;;;;;;6274945;22;20004;-74
2022/08/22 11:09:18;;;;;;;0.45;0.40;;;25.20;62.30;;;;;;6275440;22;20027;-74
2022/08/22 11:12:01;;;;;;;0.77;0.47;;;25.20;62.10;;;;;;6274742;22;20057;-73
2022/08/22 11:15:01;;;;;;;0.45;0.45;;;25.30;61.80;;;;;;6275203;22;20000;-73
2022/08/22 11:17:58;;;;;;;0.50;0.40;;;25.30;61.70;;;;;;6274808;22;20051;-74
2022/08/22 11:20:36;;;;;;;0.45;0.38;;;25.30;61.70;;;;;;6275124;22;20000;-74
2022/08/22 11:23:27;;;;;;;1.75;0.73;;;25.40;61.70;;;;;;6275980;22;20443;-74
2022/08/22 11:26:29;;;;;;;0.45;0.45;;;25.50;61.30;;;;;;6274936;22;20424;-73
2022/08/22 11:29:10;;;;;;;0.95;0.60;;;25.70;61.00;;;;;;6275096;22;20320;-74
2022/08/22 11:31:48;;;;;;;1.88;0.45;;;25.90;60.50;;;;;;6275340;22;20012;-73
2022/08/22 11:34:30;;;;;;;0.88;0.60;;;26.00;60.20;;;;;;6247588;22;20620;-73
2022/08/22 11:37:07;;;;;;;0.50;0.50;;;26.00;60.10;;;;;;6275578;22;20432;-73
2022/08/22 11:39:41;;;;;;;0.50;0.50;;;26.00;60.00;;;;;;6275013;22;20006;-73
2022/08/22 11:42:30;;;;;;;0.50;0.50;;;26.10;59.90;;;;;;6274940;22;20004;-73
2022/08/22 11:45:03;;;;;;;0.35;0.35;;;26.30;59.90;;;;;;6274931;22;20443;-73
2022/08/22 11:47:36;;;;;;;1.42;0.50;;;26.20;59.70;;;;;;6245290;22;20008;-73
2022/08/22 11:50:20;;;;;;;1.02;0.52;;;26.30;59.70;;;;;;6274687;22;20000;-73
2022/08/22 11:52:59;;;;;;;0.43;0.43;;;26.30;59.70;;;;;;6275256;22;20000;-73
2022/08/22 11:55:34;;;;;;;0.52;0.45;;;26.30;59.90;;;;;;6247859;22;20014;-73
2022/08/22 11:58:24;;;;;;;0.35;0.35;;;26.20;59.80;;;;;;6249739;22;20029;-73
2022/08/22 12:01:08;;;;;;;0.85;0.70;;;26.20;59.70;;;;;;6275518;22;20455;-73
2022/08/22 12:03:47;;;;;;;0.70;0.60;;;26.30;59.70;;;;;;6274954;22;20049;-73
2022/08/22 12:06:44;;;;;;;0.65;0.57;;;26.50;59.50;;;;;;6275164;22;20000;-73
2022/08/22 12:09:27;;;;;;;1.75;0.88;;;26.50;59.10;;;;;;6274716;22;20007;-73
2022/08/22 12:12:19;;;;;;;0.93;0.70;;;26.60;58.80;;;;;;6274796;22;20003;-73
2022/08/22 12:15:10;;;;;;;0.47;0.45;;;26.60;58.80;;;;;;6275824;22;20160;-73
2022/08/22 12:18:12;;;;;;;0.60;0.57;;;26.60;58.70;;;;;;6251943;22;20012;-74
2022/08/22 12:21:02;;;;;;;0.80;0.60;;;26.60;58.40;;;;;;6247409;22;20082;-73
2022/08/22 12:23:58;;;;;;;0.70;0.63;;;26.50;58.60;;;;;;6275346;22;20057;-73
2022/08/22 12:26:54;;;;;;;0.50;0.50;;;26.50;58.70;;;;;;6252065;22;20479;-73
2022/08/22 12:29:48;;;;;;;0.93;0.60;;;26.50;58.50;;;;;;6275119;22;20095;-73
2022/08/22 12:32:41;;;;;;;0.82;0.50;;;26.60;58.40;;;;;;6274875;22;20008;-73
2022/08/22 12:35:33;;;;;;;0.70;0.55;;;26.60;58.30;;;;;;6275389;22;20028;-73
2022/08/22 12:38:19;;;;;;;0.40;0.40;;;26.70;58.10;;;;;;6275240;22;20011;-73
2022/08/22 12:41:11;;;;;;;0.65;0.65;;;26.70;58.40;;;;;;6274945;22;20003;-73
2022/08/22 12:44:03;;;;;;;0.65;0.57;;;26.70;58.00;;;;;;6274813;22;20427;-73
2022/08/22 12:47:02;;;;;;;1.27;0.60;;;26.80;58.10;;;;;;6271320;22;20129;-74
2022/08/22 12:49:55;;;;;;;0.95;0.60;;;26.80;57.80;;;;;;6275089;22;20004;-73
2022/08/22 12:52:49;;;;;;;0.40;0.40;;;26.80;57.80;;;;;;6247472;22;20015;-73
2022/08/22 12:55:47;;;;;;;0.60;0.60;;;26.90;57.80;;;;;;6247406;22;20003;-73
2022/08/22 12:58:44;;;;;;;0.50;0.50;;;26.90;57.60;;;;;;6255251;22;20031;-73
2022/08/22 13:01:12;;;;;;;0.75;0.43;;;26.80;57.70;;;;;;6254415;22;20003;-73
2022/08/22 13:04:01;;;;;;;1.00;0.57;;;26.90;57.70;;;;;;6275080;22;19996;-73
2022/08/22 13:06:48;;;;;;;1.35;0.70;;;26.90;57.60;;;;;;6247477;22;20007;-73
2022/08/22 13:09:21;;;;;;;0.50;0.50;;;26.80;57.60;;;;;;6248197;22;20065;-73
2022/08/22 13:11:52;;;;;;;0.77;0.40;;;26.80;57.60;;;;;;6248661;22;20010;-73
2022/08/22 13:14:27;;;;;;;0.60;0.50;;;26.80;57.50;;;;;;6274711;22;20031;-73
2022/08/22 13:16:57;;;;;;;0.70;0.70;;;26.80;57.50;;;;;;6274340;22;20035;-73
2022/08/22 13:19:27;;;;;;;0.85;0.47;;;26.80;57.40;;;;;;6274238;22;20003;-73
2022/08/22 13:22:02;;;;;;;0.82;0.60;;;26.70;57.30;;;;;;6274938;22;20420;-73
2022/08/22 13:24:40;;;;;;;0.65;0.40;;;26.70;57.30;;;;;;6274783;22;19999;-73
2022/08/22 13:27:14;;;;;;;0.52;0.50;;;26.80;57.20;;;;;;6274719;22;20003;-73
2022/08/22 13:29:48;;;;;;;0.65;0.52;;;26.90;57.00;;;;;;6274331;22;20431;-73
2022/08/22 13:32:22;;;;;;;0.40;0.40;;;27.00;56.80;;;;;;6246991;22;20007;-73
2022/08/22 13:34:52;;;;;;;0.50;0.50;;;27.00;56.60;;;;;;6274384;22;20057;-73
2022/08/22 13:37:23;;;;;;;0.88;0.60;;;27.10;56.60;;;;;;6247267;22;20162;-73
2022/08/22 13:39:52;;;;;;;;;;;27.10;56.40;;;;;;6274763;22;20004;-73
2022/08/22 13:42:21;;;;;;;0.40;0.40;;;27.10;56.40;;;;;;6274150;22;19985;-73
2022/08/22 13:44:52;;;;;;;0.40;0.40;;;27.00;56.50;;;;;;6274421;22;20494;-73
2022/08/22 13:47:20;;;;;;;1.10;0.63;;;27.00;56.50;;;;;;6274931;22;20030;-73
2022/08/22 13:49:52;;;;;;;2.15;0.60;;;27.00;56.40;;;;;;6274359;22;20000;-73
2022/08/22 13:52:31;;;;;;;1.33;0.65;;;27.00;56.20;;;;;;6273954;22;20057;-72
2022/08/22 13:55:09;;;;;;;0.63;0.52;;;27.00;56.00;;;;;;6247323;22;20011;-73
2022/08/22 13:57:40;;;;;;;0.40;0.40;;;27.00;56.10;;;;;;6274112;22;20018;-74
2022/08/22 14:00:30;;;;;;;1.08;0.50;;;27.00;56.10;;;;;;6275669;22;20114;-73
2022/08/22 14:03:18;;;;;;;0.75;0.50;;;27.00;55.90;;;;;;6253251;22;19999;-73
2022/08/22 14:05:51;;;;;;;0.93;0.60;;;27.00;55.80;;;;;;6275705;22;20015;-73
2022/08/22 14:08:28;;;;;;;0.85;0.70;;;27.00;55.80;;;;;;6275415;22;20061;-73
2022/08/22 14:11:07;;;;;;;0.50;0.50;;;26.80;55.80;;;;;;6275693;22;20004;-73
2022/08/22 14:13:59;;;;;;;0.75;0.70;;;26.80;55.90;;;;;;6223130;22;20000;-73